Time;durP1;ratioP1;P1;durP2;ratioP2;P2;SDS_P1;SDS_P2;PMS_P1;PMS_P2;Temp;Humidity;BMP_temperature;BMP_pressure;BME280_temperature;BME280_humidity;BME280_pressure;Samples;Min_cycle;Max_cycle;Signal;HPM_P1;HPM_P2
2022/06/27 00:00:17;;;;;;;13.23;6.70;;;19.30;99.90;;;;;;5038833;28;20113;-77
2022/06/27 00:02:43;;;;;;;12.05;6.78;;;19.30;99.90;;;;;;5036833;28;20086;-77
2022/06/27 00:05:10;;;;;;;7.95;5.97;;;19.30;99.90;;;;;;5035243;28;20025;-77
2022/06/27 00:07:36;;;;;;;10.35;6.25;;;19.30;99.90;;;;;;5033652;28;20036;-77
2022/06/27 00:10:03;;;;;;;10.30;6.70;;;19.30;99.90;;;;;;5045375;28;20022;-76
2022/06/27 00:12:29;;;;;;;12.27;7.00;;;19.30;99.90;;;;;;5033627;28;20084;-76
2022/06/27 00:14:54;;;;;;;11.52;6.70;;;19.30;99.90;;;;;;5034713;28;20056;-77
2022/06/27 00:17:20;;;;;;;8.52;6.15;;;19.30;99.90;;;;;;5040325;28;20020;-76
2022/06/27 00:19:45;;;;;;;10.25;6.05;;;19.30;99.90;;;;;;5037367;28;20042;-79
2022/06/27 00:22:11;;;;;;;11.93;6.25;;;19.20;99.90;;;;;;5042698;28;20036;-76
2022/06/27 00:24:37;;;;;;;12.57;6.45;;;19.20;99.90;;;;;;5036156;28;20021;-76
2022/06/27 00:27:02;;;;;;;8.48;6.47;;;19.20;99.90;;;;;;5033987;28;20025;-77
2022/06/27 00:29:28;;;;;;;11.88;7.15;;;19.20;99.90;;;;;;5037958;28;20456;-77
2022/06/27 00:31:54;;;;;;;11.80;6.47;;;19.20;99.90;;;;;;5036477;28;20013;-77
2022/06/27 00:34:19;;;;;;;11.57;6.30;;;19.20;99.90;;;;;;5041631;28;20018;-77
2022/06/27 00:36:45;;;;;;;11.32;6.60;;;19.20;99.90;;;;;;5032899;28;20018;-77
2022/06/27 00:39:11;;;;;;;9.95;6.18;;;19.20;99.90;;;;;;5032943;28;20378;-77
2022/06/27 00:41:36;;;;;;;11.63;6.38;;;19.20;99.90;;;;;;5035617;28;20452;-77
2022/06/27 00:44:02;;;;;;;14.65;6.45;;;19.20;99.90;;;;;;5033039;28;20025;-76
2022/06/27 00:46:31;;;;;;;10.18;6.70;;;19.10;99.90;;;;;;5031654;28;20496;-77
2022/06/27 00:48:57;;;;;;;12.55;6.70;;;19.20;99.90;;;;;;5032768;28;20026;-77
2022/06/27 00:51:26;;;;;;;9.90;6.38;;;19.10;99.90;;;;;;5037980;28;20370;-76
2022/06/27 00:53:53;;;;;;;13.20;6.43;;;19.10;99.90;;;;;;5033699;28;20032;-77
2022/06/27 00:56:18;;;;;;;9.30;6.40;;;19.10;99.90;;;;;;5039141;28;20063;-77
2022/06/27 00:58:44;;;;;;;10.40;6.28;;;19.10;99.90;;;;;;5033841;28;20450;-77
2022/06/27 01:01:10;;;;;;;10.35;5.97;;;19.10;99.90;;;;;;5051137;28;20032;-77
2022/06/27 01:03:35;;;;;;;10.13;5.97;;;19.10;99.90;;;;;;5053338;28;20033;-77
2022/06/27 01:06:03;;;;;;;9.63;6.35;;;19.10;99.90;;;;;;5053310;28;20025;-76
2022/06/27 01:08:29;;;;;;;13.38;6.75;;;19.10;99.90;;;;;;5052516;28;20086;-77
2022/06/27 01:10:54;;;;;;;9.90;5.82;;;19.10;99.90;;;;;;5046862;28;21188;-77
2022/06/27 01:13:23;;;;;;;10.75;6.30;;;19.10;99.90;;;;;;5046559;28;20052;-76
2022/06/27 01:15:50;;;;;;;10.32;6.38;;;19.10;99.90;;;;;;5054937;28;20132;-76
2022/06/27 01:18:16;;;;;;;10.45;6.35;;;19.10;99.90;;;;;;5051156;28;20535;-77
2022/06/27 01:20:43;;;;;;;7.32;5.72;;;19.00;99.90;;;;;;5045742;28;20099;-77
2022/06/27 01:23:09;;;;;;;12.73;6.43;;;19.10;99.90;;;;;;5034565;28;20014;-77
2022/06/27 01:25:36;;;;;;;10.98;6.57;;;19.10;99.90;;;;;;5046216;28;20037;-78
2022/06/27 01:28:03;;;;;;;8.98;6.28;;;19.10;99.90;;;;;;5048394;28;20021;-77
2022/06/27 01:30:29;;;;;;;13.90;6.68;;;19.00;99.90;;;;;;5053472;28;20473;-77
2022/06/27 01:32:54;;;;;;;10.55;6.68;;;19.00;99.90;;;;;;5052693;28;20032;-76
2022/06/27 01:35:20;;;;;;;11.82;6.13;;;19.00;99.90;;;;;;5043740;28;20009;-77
2022/06/27 01:37:45;;;;;;;12.13;6.25;;;19.00;99.90;;;;;;5050903;28;20033;-77
2022/06/27 01:40:11;;;;;;;13.02;6.97;;;19.00;99.90;;;;;;5038607;28;20113;-76
2022/06/27 01:42:37;;;;;;;10.65;6.35;;;19.00;99.90;;;;;;5046314;28;20030;-76
2022/06/27 01:45:03;;;;;;;12.27;5.90;;;19.00;99.90;;;;;;5038057;28;20016;-77
2022/06/27 01:47:30;;;;;;;10.05;6.88;;;19.00;99.90;;;;;;5046885;28;20082;-77
2022/06/27 01:49:56;;;;;;;9.90;6.18;;;19.00;99.90;;;;;;5055227;28;20055;-76
2022/06/27 01:52:22;;;;;;;13.40;6.68;;;19.00;99.90;;;;;;5049209;28;20413;-77
2022/06/27 01:54:47;;;;;;;9.32;6.60;;;18.90;99.90;;;;;;5046499;28;20025;-76
2022/06/27 01:57:16;;;;;;;11.48;6.65;;;19.00;99.90;;;;;;5055313;28;20017;-77
2022/06/27 01:59:42;;;;;;;10.35;6.93;;;18.90;99.90;;;;;;5054956;28;20059;-77
2022/06/27 02:02:08;;;;;;;9.60;6.05;;;18.90;99.90;;;;;;5042004;28;20040;-77
2022/06/27 02:04:34;;;;;;;13.50;6.55;;;18.90;99.90;;;;;;5050552;28;20025;-76
2022/06/27 02:07:00;;;;;;;11.02;6.72;;;18.90;99.90;;;;;;5038517;28;20180;-76
2022/06/27 02:09:26;;;;;;;10.80;6.82;;;18.90;99.90;;;;;;5036267;28;20013;-77
2022/06/27 02:11:54;;;;;;;11.20;6.63;;;18.90;99.90;;;;;;5042509;28;20031;-77
2022/06/27 02:14:20;;;;;;;8.57;6.45;;;18.90;99.90;;;;;;5050246;28;20025;-77
2022/06/27 02:16:46;;;;;;;10.73;6.47;;;18.90;99.90;;;;;;5047089;28;20071;-77
2022/06/27 02:19:13;;;;;;;12.15;6.75;;;18.90;99.90;;;;;;5052546;28;20445;-77
2022/06/27 02:21:40;;;;;;;10.18;6.60;;;18.90;99.90;;;;;;5054663;28;20143;-77
2022/06/27 02:24:06;;;;;;;12.10;7.00;;;18.80;99.90;;;;;;5051474;28;20025;-77
2022/06/27 02:26:31;;;;;;;11.45;6.80;;;18.80;99.90;;;;;;5048894;28;20036;-76
2022/06/27 02:28:58;;;;;;;11.35;6.93;;;18.80;99.90;;;;;;5051653;28;20527;-77
2022/06/27 02:31:25;;;;;;;10.68;6.57;;;18.80;99.90;;;;;;5055083;28;20029;-77
2022/06/27 02:33:52;;;;;;;7.40;6.15;;;18.70;99.90;;;;;;5043119;28;20056;-76
2022/06/27 02:36:21;;;;;;;9.77;6.70;;;18.70;99.90;;;;;;5047765;28;20064;-76
2022/06/27 02:38:50;;;;;;;11.48;7.07;;;18.70;99.90;;;;;;5048030;28;20377;-76
2022/06/27 02:41:17;;;;;;;12.85;6.95;;;18.70;99.90;;;;;;5041325;28;20037;-77
2022/06/27 02:44:00;;;;;;;14.40;7.53;;;18.70;99.90;;;;;;5046479;28;20487;-77
2022/06/27 02:46:27;;;;;;;14.60;7.07;;;18.70;99.90;;;;;;5053977;28;20067;-77
2022/06/27 02:48:53;;;;;;;10.32;6.82;;;18.70;99.90;;;;;;5053869;28;20033;-77
2022/06/27 02:51:21;;;;;;;15.60;7.45;;;18.60;99.90;;;;;;5052313;28;20031;-77
2022/06/27 02:54:03;;;;;;;14.45;7.88;;;18.60;99.90;;;;;;5051414;28;20480;-76
2022/06/27 02:56:31;;;;;;;14.40;7.10;;;18.60;99.90;;;;;;5051245;28;20021;-77
2022/06/27 02:59:04;;;;;;;13.85;7.80;;;18.60;99.90;;;;;;5041586;28;20017;-77
2022/06/27 03:01:31;;;;;;;14.18;8.10;;;18.50;99.90;;;;;;5048566;28;20037;-77
2022/06/27 03:03:59;;;;;;;10.80;8.05;;;18.50;99.90;;;;;;5039768;28;20017;-77
2022/06/27 03:06:25;;;;;;;13.15;8.02;;;18.40;99.90;;;;;;5046362;28;20490;-76
2022/06/27 03:08:51;;;;;;;12.70;7.88;;;18.40;99.90;;;;;;5033601;28;20029;-77
2022/06/27 03:11:22;;;;;;;10.52;7.75;;;18.30;99.90;;;;;;5048730;28;20029;-77
2022/06/27 03:13:49;;;;;;;9.88;7.80;;;18.30;99.90;;;;;;5041280;28;20022;-77
2022/06/27 03:16:15;;;;;;;14.25;8.18;;;18.20;99.90;;;;;;5047016;28;20048;-76
2022/06/27 03:18:41;;;;;;;14.20;9.10;;;18.20;99.90;;;;;;5053121;28;20522;-77
2022/06/27 03:21:07;;;;;;;14.80;8.75;;;18.20;99.90;;;;;;5053129;28;20401;-76
2022/06/27 03:23:33;;;;;;;13.00;8.90;;;18.10;99.90;;;;;;5041700;28;20062;-77
2022/06/27 03:25:59;;;;;;;15.65;9.10;;;18.10;99.90;;;;;;5046482;28;20044;-77
2022/06/27 03:28:25;;;;;;;13.18;8.43;;;18.00;99.90;;;;;;5040249;28;20038;-77
2022/06/27 03:30:51;;;;;;;12.80;8.23;;;18.00;99.90;;;;;;5051584;28;20029;-76
2022/06/27 03:33:16;;;;;;;11.55;7.63;;;17.90;99.90;;;;;;5040027;28;20104;-77
2022/06/27 03:35:42;;;;;;;11.57;7.55;;;17.90;99.90;;;;;;5047734;28;20112;-76
2022/06/27 03:38:08;;;;;;;12.90;7.68;;;17.90;99.90;;;;;;5053293;28;20373;-78
2022/06/27 03:40:34;;;;;;;11.85;8.40;;;17.80;99.90;;;;;;5038985;28;20036;-77
2022/06/27 03:43:00;;;;;;;14.35;8.45;;;17.80;99.90;;;;;;5047326;28;20412;-77
2022/06/27 03:45:26;;;;;;;12.57;8.00;;;17.70;99.90;;;;;;5044833;28;20029;-77
2022/06/27 03:47:57;;;;;;;11.00;7.68;;;17.70;99.90;;;;;;5052050;28;20021;-77
2022/06/27 03:50:24;;;;;;;13.77;8.77;;;17.70;99.90;;;;;;5051876;28;20507;-77
2022/06/27 03:52:52;;;;;;;12.95;8.88;;;17.70;99.90;;;;;;5040766;28;20454;-77
2022/06/27 03:55:18;;;;;;;15.95;8.13;;;17.70;99.90;;;;;;5038803;28;20021;-77
2022/06/27 03:57:58;;;;;;;15.00;8.45;;;17.70;99.90;;;;;;5036542;28;20014;-77
2022/06/27 04:00:26;;;;;;;14.43;7.93;;;17.70;99.90;;;;;;5040276;28;20417;-76
2022/06/27 04:02:52;;;;;;;11.40;7.43;;;17.70;99.90;;;;;;5039065;28;20018;-76
2022/06/27 04:05:18;;;;;;;13.32;8.20;;;17.60;99.90;;;;;;5048516;28;20020;-77
2022/06/27 04:07:44;;;;;;;10.90;7.80;;;17.60;99.90;;;;;;5052033;28;20020;-77
2022/06/27 04:10:12;;;;;;;12.35;8.00;;;17.60;99.90;;;;;;5041534;28;20103;-77
2022/06/27 04:12:38;;;;;;;15.07;7.93;;;17.60;99.90;;;;;;5051700;28;20119;-77
2022/06/27 04:15:06;;;;;;;13.32;7.20;;;17.60;99.90;;;;;;5046934;28;20029;-77
2022/06/27 04:17:32;;;;;;;12.55;7.30;;;17.60;99.90;;;;;;5049836;28;20051;-77
2022/06/27 04:19:57;;;;;;;13.25;8.65;;;17.60;99.90;;;;;;5050015;28;20052;-77
2022/06/27 04:22:23;;;;;;;11.07;7.45;;;17.60;99.90;;;;;;5049568;28;20027;-78
2022/06/27 04:24:49;;;;;;;15.20;7.53;;;17.60;99.90;;;;;;5050718;28;20033;-77
2022/06/27 04:27:17;;;;;;;15.15;8.30;;;17.60;99.90;;;;;;5049992;28;20029;-76
2022/06/27 04:29:43;;;;;;;14.05;7.88;;;17.60;99.90;;;;;;5052265;28;20098;-77
2022/06/27 04:32:09;;;;;;;13.93;7.65;;;17.60;99.90;;;;;;5036393;28;20033;-77
2022/06/27 04:34:38;;;;;;;12.65;7.60;;;17.60;99.90;;;;;;5034790;28;20032;-77
2022/06/27 04:37:04;;;;;;;12.05;7.15;;;17.60;99.90;;;;;;5034215;28;20025;-78
2022/06/27 04:39:30;;;;;;;9.90;7.43;;;17.60;99.90;;;;;;5035140;28;20040;-77
2022/06/27 04:42:04;;;;;;;12.35;8.00;;;17.70;99.90;;;;;;5038427;28;20025;-77
2022/06/27 04:44:30;;;;;;;13.73;7.32;;;17.70;99.90;;;;;;5032957;28;20026;-77
2022/06/27 04:46:56;;;;;;;9.48;6.82;;;17.70;99.90;;;;;;5038331;28;20484;-77
2022/06/27 04:49:21;;;;;;;15.68;7.68;;;17.80;99.90;;;;;;5033819;28;20022;-77
2022/06/27 04:51:49;;;;;;;11.90;7.82;;;17.80;99.90;;;;;;5030654;28;20144;-77
2022/06/27 04:54:16;;;;;;;10.07;6.60;;;17.90;99.90;;;;;;5034863;28;20029;-76
2022/06/27 04:56:42;;;;;;;9.60;6.85;;;17.90;99.90;;;;;;5030930;28;20529;-77
2022/06/27 04:59:09;;;;;;;10.55;7.55;;;17.90;99.90;;;;;;5034511;28;20393;-76
2022/06/27 05:01:35;;;;;;;15.73;8.27;;;17.90;99.90;;;;;;5042228;28;20087;-77
2022/06/27 05:04:00;;;;;;;11.98;7.68;;;17.90;99.90;;;;;;5037135;28;20026;-77
2022/06/27 05:06:26;;;;;;;13.07;8.75;;;17.90;99.90;;;;;;5030618;28;20029;-77
2022/06/27 05:08:52;;;;;;;13.35;8.15;;;17.90;99.90;;;;;;5035370;28;20026;-76
2022/06/27 05:11:17;;;;;;;13.38;8.70;;;17.90;99.90;;;;;;5033497;28;20032;-76
2022/06/27 05:13:43;;;;;;;15.00;7.90;;;17.80;99.90;;;;;;5036795;28;20747;-76
2022/06/27 05:16:08;;;;;;;14.07;8.18;;;17.80;99.90;;;;;;5043069;28;20021;-76
2022/06/27 05:18:34;;;;;;;12.60;8.43;;;17.80;99.90;;;;;;5031115;28;20120;-76
2022/06/27 05:21:00;;;;;;;12.90;8.35;;;17.80;99.90;;;;;;5045609;28;20179;-77
2022/06/27 05:23:25;;;;;;;14.57;9.25;;;17.80;99.90;;;;;;5034821;28;20021;-76
2022/06/27 05:25:51;;;;;;;18.35;9.38;;;17.80;99.90;;;;;;5042034;28;20059;-76
2022/06/27 05:28:17;;;;;;;15.20;8.30;;;17.80;99.90;;;;;;5035598;28;20026;-76
2022/06/27 05:30:42;;;;;;;14.27;8.98;;;17.90;99.90;;;;;;5042514;28;20043;-76
2022/06/27 05:33:08;;;;;;;13.75;8.13;;;17.90;99.90;;;;;;5047331;28;20017;-76
2022/06/27 05:35:34;;;;;;;14.43;9.20;;;18.00;99.90;;;;;;5039819;28;20032;-77
2022/06/27 05:38:00;;;;;;;13.95;8.98;;;18.00;99.90;;;;;;5038064;28;20045;-77
2022/06/27 05:40:27;;;;;;;13.77;8.95;;;18.00;99.90;;;;;;5042541;28;20084;-78
2022/06/27 05:42:54;;;;;;;15.45;9.50;;;18.10;99.90;;;;;;5040743;28;20013;-77
2022/06/27 05:45:21;;;;;;;18.13;8.90;;;18.10;99.90;;;;;;5038641;28;20025;-77
2022/06/27 05:47:47;;;;;;;15.95;8.85;;;18.20;99.90;;;;;;5037995;28;20025;-78
2022/06/27 05:50:13;;;;;;;17.77;8.48;;;18.20;99.90;;;;;;5039737;28;20508;-79
2022/06/27 05:52:39;;;;;;;14.40;8.63;;;18.20;99.90;;;;;;5039544;28;20461;-78
2022/06/27 05:55:07;;;;;;;18.15;8.82;;;18.20;99.90;;;;;;5035910;28;20061;-78
2022/06/27 05:57:33;;;;;;;15.60;8.82;;;18.30;99.90;;;;;;5045240;28;20493;-76
2022/06/27 05:59:58;;;;;;;18.40;9.57;;;18.40;99.90;;;;;;5039026;28;20101;-77
2022/06/27 06:02:25;;;;;;;15.30;10.05;;;18.40;99.90;;;;;;5039282;28;20033;-77
2022/06/27 06:04:53;;;;;;;15.98;9.88;;;18.40;99.90;;;;;;5039858;28;20044;-74
2022/06/27 06:07:19;;;;;;;15.25;9.80;;;18.50;99.90;;;;;;5043434;28;20108;-74
2022/06/27 06:09:45;;;;;;;17.35;10.48;;;18.60;99.90;;;;;;5035757;28;20041;-75
2022/06/27 06:12:12;;;;;;;14.80;9.43;;;18.60;99.90;;;;;;5035154;28;20013;-75
2022/06/27 06:14:38;;;;;;;15.05;9.35;;;18.70;99.90;;;;;;5035198;28;20079;-75
2022/06/27 06:17:05;;;;;;;15.25;9.43;;;18.70;99.90;;;;;;5052009;28;20017;-75
2022/06/27 06:19:31;;;;;;;14.25;9.82;;;18.80;99.90;;;;;;5045907;28;20060;-77
2022/06/27 06:21:58;;;;;;;16.40;9.35;;;18.90;99.90;;;;;;5035864;28;20079;-79
2022/06/27 06:24:24;;;;;;;18.70;10.57;;;18.90;99.90;;;;;;5033469;28;20366;-76
2022/06/27 06:26:52;;;;;;;15.88;10.18;;;19.00;99.90;;;;;;5043276;28;20025;-77
2022/06/27 06:29:18;;;;;;;16.20;9.82;;;19.00;99.90;;;;;;5042603;28;20373;-79
2022/06/27 06:31:45;;;;;;;15.98;9.63;;;19.00;99.90;;;;;;5038546;28;20029;-79
2022/06/27 06:34:12;;;;;;;15.48;9.38;;;19.10;99.90;;;;;;5038639;28;20373;-79
2022/06/27 06:36:38;;;;;;;13.73;8.65;;;19.20;99.90;;;;;;5044932;28;20017;-77
2022/06/27 06:39:08;;;;;;;17.45;9.32;;;19.30;99.90;;;;;;5035195;28;20064;-77
2022/06/27 06:41:35;;;;;;;16.98;10.07;;;19.30;99.90;;;;;;5041468;28;20033;-77
2022/06/27 06:44:05;;;;;;;17.00;8.82;;;19.40;99.90;;;;;;5041812;28;20052;-77
2022/06/27 06:46:32;;;;;;;15.18;9.18;;;19.40;99.90;;;;;;5041861;28;20109;-77
2022/06/27 06:49:10;;;;;;;16.73;10.20;;;19.50;99.90;;;;;;5049059;28;20072;-78
2022/06/27 06:51:39;;;;;;;18.00;9.32;;;19.50;99.90;;;;;;5034417;28;20029;-76
2022/06/27 06:54:05;;;;;;;21.85;9.02;;;19.50;99.90;;;;;;5034124;28;20010;-77
2022/06/27 06:56:32;;;;;;;15.88;9.50;;;19.50;99.90;;;;;;5039295;28;20026;-77
2022/06/27 06:58:58;;;;;;;17.98;8.75;;;19.60;99.90;;;;;;5033201;28;20028;-77
2022/06/27 07:01:25;;;;;;;15.52;9.02;;;19.60;99.90;;;;;;5033660;28;20037;-78
2022/06/27 07:03:52;;;;;;;15.82;8.85;;;19.60;99.90;;;;;;5042248;28;20063;-77
2022/06/27 07:06:24;;;;;;;16.98;9.38;;;19.60;99.90;;;;;;5034612;28;20014;-77
2022/06/27 07:08:51;;;;;;;19.75;9.15;;;19.60;99.90;;;;;;5031983;28;20096;-77
2022/06/27 07:11:18;;;;;;;16.10;9.10;;;19.60;99.90;;;;;;5035016;28;20505;-77
2022/06/27 07:13:43;;;;;;;17.02;8.77;;;19.70;99.90;;;;;;5031792;28;20108;-77
2022/06/27 07:16:10;;;;;;;17.70;9.63;;;19.70;99.90;;;;;;5031765;28;20608;-77
2022/06/27 07:18:37;;;;;;;16.00;8.73;;;19.70;99.90;;;;;;5031484;28;20386;-77
2022/06/27 07:21:03;;;;;;;15.52;9.05;;;19.70;99.90;;;;;;5031430;28;20044;-77
2022/06/27 07:23:29;;;;;;;15.48;9.18;;;19.80;99.90;;;;;;5036670;28;20425;-77
2022/06/27 07:25:55;;;;;;;18.85;9.63;;;19.80;99.90;;;;;;5034901;28;20079;-77
2022/06/27 07:28:22;;;;;;;15.18;9.40;;;19.80;99.90;;;;;;5035820;28;20020;-77
2022/06/27 07:30:48;;;;;;;20.08;10.05;;;19.80;99.90;;;;;;5035760;28;20044;-77
2022/06/27 07:33:15;;;;;;;19.00;8.95;;;19.90;99.90;;;;;;5034822;28;20052;-77
2022/06/27 07:35:41;;;;;;;18.45;9.82;;;19.90;99.90;;;;;;5035815;28;20017;-77
2022/06/27 07:38:07;;;;;;;15.32;8.88;;;19.90;99.90;;;;;;5030322;28;20024;-77
2022/06/27 07:40:35;;;;;;;16.38;9.05;;;19.90;99.90;;;;;;5040525;28;20083;-76
2022/06/27 07:43:01;;;;;;;14.68;9.57;;;20.00;99.90;;;;;;5032794;28;20049;-77
2022/06/27 07:45:27;;;;;;;15.10;9.18;;;20.00;99.90;;;;;;5034551;28;20057;-77
2022/06/27 07:47:56;;;;;;;15.38;8.73;;;20.00;99.90;;;;;;5048158;28;20451;-77
2022/06/27 07:50:37;;;;;;;17.33;8.85;;;20.00;99.90;;;;;;5043747;28;20029;-77
2022/06/27 07:53:21;;;;;;;20.17;9.68;;;20.10;99.90;;;;;;5040893;28;20065;-77
2022/06/27 07:55:50;;;;;;;20.63;9.50;;;20.10;99.90;;;;;;5031325;28;20580;-77
2022/06/27 07:58:17;;;;;;;18.45;9.40;;;20.10;99.90;;;;;;5030286;28;20045;-77
2022/06/27 08:00:48;;;;;;;20.40;9.65;;;20.10;99.90;;;;;;5037245;28;20047;-76
2022/06/27 08:05:58;;;;;;;16.93;11.07;;;20.20;99.90;;;;;;5030467;28;20164;-77
2022/06/27 08:08:25;;;;;;;18.45;11.73;;;20.30;99.90;;;;;;5030182;28;20271;-76
2022/06/27 08:10:51;;;;;;;19.30;12.00;;;20.30;99.90;;;;;;5030422;28;20026;-77
2022/06/27 08:13:17;;;;;;;22.92;12.75;;;20.40;99.90;;;;;;5035070;28;20022;-76
2022/06/27 08:15:44;;;;;;;20.67;12.38;;;20.40;99.90;;;;;;5031182;28;20540;-76
2022/06/27 08:18:10;;;;;;;25.90;12.38;;;20.40;99.90;;;;;;5031468;28;20052;-80
2022/06/27 08:20:35;;;;;;;23.83;13.07;;;20.40;99.90;;;;;;5030069;28;20049;-76
2022/06/27 08:23:02;;;;;;;22.20;11.93;;;20.40;99.90;;;;;;5032540;28;20029;-75
2022/06/27 08:25:28;;;;;;;22.13;11.57;;;20.40;99.90;;;;;;5030403;28;20017;-76
2022/06/27 08:27:55;;;;;;;21.45;11.18;;;20.50;99.90;;;;;;5030429;28;20039;-76
2022/06/27 08:30:25;;;;;;;20.70;11.57;;;20.50;99.90;;;;;;5032073;28;20045;-77
2022/06/27 08:32:54;;;;;;;19.80;11.55;;;20.60;99.90;;;;;;5030451;28;20049;-76
2022/06/27 08:35:20;;;;;;;22.45;10.80;;;20.80;99.90;;;;;;5030435;28;20033;-76
2022/06/27 08:37:46;;;;;;;18.67;11.32;;;20.80;99.90;;;;;;5030459;28;20025;-76
2022/06/27 08:40:13;;;;;;;24.45;11.88;;;20.90;99.90;;;;;;5032889;28;20036;-76
2022/06/27 08:42:40;;;;;;;21.00;9.90;;;20.90;99.90;;;;;;5033430;28;20021;-76
2022/06/27 08:45:07;;;;;;;24.35;10.15;;;21.00;99.90;;;;;;5034469;28;20033;-80
2022/06/27 08:47:32;;;;;;;13.55;7.95;;;21.20;99.90;;;;;;5037287;28;20026;-77
2022/06/27 08:49:58;;;;;;;15.00;8.75;;;21.20;99.90;;;;;;5037230;28;20500;-76
2022/06/27 08:52:24;;;;;;;16.88;9.63;;;21.30;99.90;;;;;;5041507;28;20097;-76
2022/06/27 08:54:51;;;;;;;17.02;8.77;;;21.40;99.90;;;;;;5050147;28;20029;-77
2022/06/27 08:57:18;;;;;;;10.88;7.15;;;21.40;99.90;;;;;;5046544;28;20500;-76
2022/06/27 08:59:44;;;;;;;16.08;8.00;;;21.40;99.90;;;;;;5054605;28;20017;-76
2022/06/27 09:02:16;;;;;;;13.32;7.30;;;21.50;99.90;;;;;;5048872;28;20033;-76
2022/06/27 09:04:57;;;;;;;13.00;6.63;;;21.50;99.90;;;;;;5050044;28;20477;-76
2022/06/27 09:07:23;;;;;;;14.63;6.40;;;21.60;99.90;;;;;;5054204;28;20060;-76
2022/06/27 09:09:49;;;;;;;10.85;5.72;;;21.60;99.90;;;;;;5040569;28;20430;-75
2022/06/27 09:12:15;;;;;;;14.32;6.15;;;21.70;99.90;;;;;;5053354;28;20017;-74
2022/06/27 09:14:43;;;;;;;14.02;6.60;;;21.70;99.90;;;;;;5042310;28;20030;-76
2022/06/27 09:17:15;;;;;;;12.35;6.00;;;21.60;99.90;;;;;;5039065;28;20144;-75
2022/06/27 09:19:45;;;;;;;12.38;6.32;;;21.60;99.90;;;;;;5049533;28;20053;-75
2022/06/27 09:22:14;;;;;;;16.65;6.70;;;21.70;99.90;;;;;;5046013;28;20056;-76
2022/06/27 09:25:06;;;;;;;11.38;6.53;;;21.70;99.90;;;;;;5036743;28;20021;-75
2022/06/27 09:27:53;;;;;;;13.90;6.90;;;21.70;99.90;;;;;;5036968;28;20028;-74
2022/06/27 09:30:20;;;;;;;15.02;6.70;;;21.70;99.90;;;;;;5047903;28;20053;-75
2022/06/27 09:32:49;;;;;;;14.52;5.68;;;21.80;99.90;;;;;;5036847;28;20419;-75
2022/06/27 09:35:34;;;;;;;14.52;5.53;;;21.80;99.90;;;;;;5037945;28;20543;-75
2022/06/27 09:38:07;;;;;;;11.02;4.47;;;21.90;99.90;;;;;;5036459;28;20087;-75
2022/06/27 09:40:33;;;;;;;9.90;4.47;;;21.90;99.90;;;;;;5035354;28;20056;-75
2022/06/27 09:43:00;;;;;;;13.98;5.03;;;22.00;99.90;;;;;;5038576;28;20033;-75
2022/06/27 09:45:28;;;;;;;9.10;4.57;;;22.00;99.90;;;;;;5037017;28;20269;-76
2022/06/27 09:48:01;;;;;;;13.95;4.32;;;22.00;99.90;;;;;;5035733;28;20021;-75
2022/06/27 09:50:29;;;;;;;14.23;4.28;;;22.00;99.90;;;;;;5038196;28;20120;-75
2022/06/27 09:52:55;;;;;;;10.98;3.67;;;22.10;99.90;;;;;;5044991;28;20510;-75
2022/06/27 09:55:23;;;;;;;12.00;3.97;;;22.10;99.90;;;;;;5034851;28;20108;-75
2022/06/27 09:57:50;;;;;;;7.57;4.43;;;22.30;99.90;;;;;;5039139;28;20017;-74
2022/06/27 10:00:17;;;;;;;13.45;4.78;;;22.40;99.90;;;;;;5038875;28;20048;-75
2022/06/27 10:02:45;;;;;;;11.23;5.13;;;22.50;99.90;;;;;;5038435;28;20075;-75
2022/06/27 10:05:11;;;;;;;12.48;4.75;;;22.60;99.90;;;;;;5032612;28;20033;-75
2022/06/27 10:07:38;;;;;;;10.07;4.40;;;22.70;99.90;;;;;;5037550;28;20029;-75
2022/06/27 10:10:05;;;;;;;17.38;5.20;;;22.70;99.90;;;;;;5045461;28;20052;-73
2022/06/27 10:12:32;;;;;;;11.85;5.30;;;22.80;99.90;;;;;;5041150;28;20036;-74
2022/06/27 10:15:10;;;;;;;16.23;5.60;;;22.80;99.90;;;;;;5038517;28;20471;-74
2022/06/27 10:17:37;;;;;;;10.50;4.75;;;22.70;99.90;;;;;;5043548;28;20112;-73
2022/06/27 10:20:09;;;;;;;15.15;6.00;;;22.70;99.90;;;;;;5037782;28;20044;-74
2022/06/27 10:22:35;;;;;;;10.30;5.45;;;22.70;99.90;;;;;;5045532;28;20082;-74
2022/06/27 10:25:26;;;;;;;13.07;5.85;;;22.70;99.90;;;;;;5033949;28;20018;-75
2022/06/27 10:28:10;;;;;;;14.73;5.60;;;22.60;99.90;;;;;;5031689;28;20504;-76
2022/06/27 10:30:55;;;;;;;12.35;5.47;;;22.60;99.90;;;;;;5046495;28;20029;-74
2022/06/27 10:33:21;;;;;;;14.05;5.60;;;22.50;99.90;;;;;;5032276;28;20010;-74
2022/06/27 10:38:31;;;;;;;12.48;5.18;;;22.40;99.90;;;;;;5044077;28;20021;-76
2022/06/27 10:41:00;;;;;;;68.30;49.65;;;22.30;99.90;;;;;;5040673;28;20033;-77
2022/06/27 10:43:40;;;;;;;19.23;9.45;;;22.30;99.90;;;;;;5035647;28;20409;-75
2022/06/27 10:46:09;;;;;;;17.00;8.82;;;22.40;99.90;;;;;;5040113;28;20512;-75
2022/06/27 10:48:43;;;;;;;12.27;5.78;;;22.40;99.90;;;;;;5044477;28;20057;-75
2022/06/27 10:51:22;;;;;;;16.83;5.90;;;22.50;99.90;;;;;;5032464;28;20036;-76
2022/06/27 10:54:09;;;;;;;11.18;5.30;;;22.50;99.90;;;;;;5034620;28;20080;-76
2022/06/27 10:56:50;;;;;;;14.73;5.97;;;22.60;99.90;;;;;;5035747;28;20603;-75
2022/06/27 10:59:15;;;;;;;15.98;6.22;;;22.50;99.90;;;;;;5036498;28;20489;-74
2022/06/27 11:01:50;;;;;;;13.00;5.47;;;22.50;99.90;;;;;;5035131;28;20033;-75
2022/06/27 11:04:33;;;;;;;12.25;5.70;;;22.60;99.90;;;;;;5037343;28;20037;-74
2022/06/27 11:07:07;;;;;;;15.13;5.63;;;22.60;99.90;;;;;;5037375;28;20033;-75
2022/06/27 11:09:37;;;;;;;17.70;5.00;;;22.60;99.90;;;;;;5034083;28;20064;-74
2022/06/27 11:12:05;;;;;;;10.80;4.45;;;22.70;99.90;;;;;;5032172;28;20026;-74
2022/06/27 11:14:41;;;;;;;14.50;4.93;;;22.80;99.90;;;;;;5032440;28;20083;-73
2022/06/27 11:17:07;;;;;;;12.93;5.25;;;22.90;99.90;;;;;;5039818;28;20053;-74
2022/06/27 11:22:21;;;;;;;8.05;3.15;;;23.10;99.90;;;;;;5038521;28;20068;-74
2022/06/27 11:24:48;;;;;;;7.00;3.03;;;23.20;99.90;;;;;;5036821;28;20100;-74
2022/06/27 11:27:15;;;;;;;8.25;2.70;;;23.30;99.90;;;;;;5035423;28;20752;-74
2022/06/27 11:32:33;;;;;;;6.88;3.63;;;23.30;99.70;;;;;;5037036;28;20158;-73
2022/06/27 11:34:59;;;;;;;10.82;3.50;;;23.30;99.90;;;;;;5045344;28;20013;-74
2022/06/27 11:37:27;;;;;;;8.75;3.42;;;23.40;99.90;;;;;;5032913;28;20043;-74
2022/06/27 11:40:04;;;;;;;6.00;2.20;;;23.40;99.90;;;;;;5031905;28;20026;-74
2022/06/27 11:42:32;;;;;;;10.13;2.70;;;23.40;98.80;;;;;;5031959;28;20448;-75
2022/06/27 11:45:16;;;;;;;4.88;2.17;;;23.30;98.50;;;;;;5035749;28;20032;-75
2022/06/27 11:47:44;;;;;;;6.03;2.38;;;23.30;97.20;;;;;;5040880;28;20082;-75
2022/06/27 11:50:20;;;;;;;8.90;2.75;;;23.20;96.60;;;;;;5034326;28;20025;-75
2022/06/27 11:52:51;;;;;;;5.72;2.40;;;23.10;96.70;;;;;;5035677;28;20104;-75
2022/06/27 11:55:20;;;;;;;8.88;2.55;;;22.90;97.30;;;;;;5037223;28;20025;-74
2022/06/27 11:57:56;;;;;;;11.25;3.22;;;22.80;97.80;;;;;;5039227;28;20049;-76
2022/06/27 12:00:24;;;;;;;11.40;2.90;;;22.60;98.40;;;;;;5038276;28;20048;-75
2022/06/27 12:03:05;;;;;;;8.25;2.95;;;22.40;99.10;;;;;;5041157;28;20416;-76
2022/06/27 12:05:32;;;;;;;9.48;2.92;;;22.40;99.90;;;;;;5046549;28;20029;-76
2022/06/27 12:08:06;;;;;;;10.50;3.10;;;22.20;99.90;;;;;;5046472;28;20024;-76
2022/06/27 12:11:17;;;;;;;10.85;3.28;;;22.20;99.90;;;;;;5041595;28;20033;-76
2022/06/27 12:13:42;;;;;;;9.65;3.03;;;22.10;99.90;;;;;;5037582;28;20018;-75
2022/06/27 12:16:11;;;;;;;8.27;2.72;;;22.00;99.90;;;;;;5039766;28;20028;-75
2022/06/27 12:18:41;;;;;;;8.05;3.45;;;21.90;99.90;;;;;;5044265;28;20036;-76
2022/06/27 12:21:07;;;;;;;11.05;3.08;;;21.80;99.90;;;;;;5037370;28;20045;-76
2022/06/27 12:23:33;;;;;;;10.02;3.65;;;21.70;99.90;;;;;;5033529;28;20064;-76
2022/06/27 12:25:59;;;;;;;8.45;3.88;;;21.60;99.90;;;;;;5040340;28;20021;-75
2022/06/27 12:28:25;;;;;;;18.98;4.30;;;21.50;99.90;;;;;;5045564;28;20068;-73
2022/06/27 12:30:51;;;;;;;14.65;3.72;;;21.10;99.90;;;;;;5037953;28;20508;-80
2022/06/27 12:33:16;;;;;;;11.02;3.00;;;20.30;99.90;;;;;;5035227;28;20036;-81
2022/06/27 12:35:42;;;;;;;11.35;2.58;;;19.20;99.90;;;;;;5037846;28;20104;-79
2022/06/27 12:38:08;;;;;;;11.65;3.05;;;18.20;99.90;;;;;;5035603;28;20098;-77
2022/06/27 12:40:35;;;;;;;9.15;2.88;;;17.60;99.90;;;;;;5032257;28;20034;-78
2022/06/27 12:43:00;;;;;;;11.00;3.22;;;17.10;99.90;;;;;;5034970;28;20036;-78
2022/06/27 12:45:26;;;;;;;9.27;3.28;;;16.90;99.90;;;;;;5032943;28;20401;-78
2022/06/27 12:47:52;;;;;;;11.15;3.13;;;16.60;99.90;;;;;;5040149;28;20037;-78
2022/06/27 12:50:18;;;;;;;10.73;3.42;;;16.50;99.90;;;;;;5032811;28;20029;-77
2022/06/27 12:52:44;;;;;;;8.25;3.50;;;16.40;99.90;;;;;;5045999;28;20040;-77